CGUBK CYEG-CYBW
Flight info
| Callsign | CGUBK |
|---|---|
| Flight time | 0h 56m |
| Altitude | 12000 |
| Route | ANTID DCT SEKAN DCT AMUNO DCT ADVOX |
| Aircraft | K100/L-SBDGRY/S |
Departure
| Time | 2026-05-06 01:01 |
|---|---|
| Airport | Edmonton International Airport (CYEG) |
Arrival
| Time | 2026-05-06 01:57 |
|---|---|
| Airport | Calgary / Springbank Airport (CYBW) |
| Time | Latitude | Longitude | Altitude | Speed | Heading |
|---|---|---|---|---|---|
| 2026-05-06 00:46 | 53.30410 | -113.58181 | 2354 ft | 0 kts | 42° |
| 2026-05-06 00:57 | 53.30407 | -113.58221 | 2354 ft | 16 kts | 233° |
| 2026-05-06 00:58 | 53.30280 | -113.58350 | 2355 ft | 24 kts | 220° |
| 2026-05-06 00:58 | 53.30318 | -113.58586 | 2356 ft | 29 kts | 315° |
| 2026-05-06 00:58 | 53.30482 | -113.58853 | 2356 ft | 36 kts | 315° |
| 2026-05-06 00:58 | 53.30635 | -113.59111 | 2355 ft | 31 kts | 313° |
| 2026-05-06 00:59 | 53.30798 | -113.59366 | 2350 ft | 28 kts | 317° |
| 2026-05-06 00:59 | 53.30852 | -113.59455 | 2348 ft | 0 kts | 316° |
| 2026-05-06 00:59 | 53.30862 | -113.59471 | 2347 ft | 7 kts | 315° |
| 2026-05-06 00:59 | 53.30931 | -113.59572 | 2347 ft | 11 kts | 11° |
| 2026-05-06 01:00 | 53.30993 | -113.59502 | 2347 ft | 26 kts | 34° |
| 2026-05-06 01:00 | 53.31320 | -113.59131 | 2350 ft | 82 kts | 33° |
| 2026-05-06 01:00 | 53.31827 | -113.58560 | 2484 ft | 100 kts | 37° |
| 2026-05-06 01:00 | 53.32482 | -113.57883 | 2726 ft | 113 kts | 33° |
| 2026-05-06 01:01 | 53.33132 | -113.57216 | 3220 ft | 108 kts | 33° |
| 2026-05-06 01:01 | 53.33777 | -113.56574 | 3658 ft | 109 kts | 33° |
| 2026-05-06 01:01 | 53.34423 | -113.55912 | 4086 ft | 108 kts | 33° |
| 2026-05-06 01:01 | 53.35072 | -113.55261 | 4510 ft | 109 kts | 34° |
| 2026-05-06 01:02 | 53.35724 | -113.54590 | 4916 ft | 110 kts | 34° |
| 2026-05-06 01:02 | 53.36321 | -113.53768 | 5294 ft | 112 kts | 43° |
| 2026-05-06 01:02 | 53.36916 | -113.52934 | 5719 ft | 111 kts | 40° |
| 2026-05-06 01:02 | 53.37520 | -113.52123 | 6117 ft | 113 kts | 39° |
| 2026-05-06 01:03 | 53.38135 | -113.51286 | 6507 ft | 115 kts | 40° |
| 2026-05-06 01:03 | 53.38751 | -113.50434 | 6885 ft | 115 kts | 38° |
| 2026-05-06 01:03 | 53.39368 | -113.49541 | 7140 ft | 126 kts | 41° |
| 2026-05-06 01:03 | 53.40067 | -113.48504 | 7266 ft | 138 kts | 40° |
| 2026-05-06 01:04 | 53.40789 | -113.47445 | 7519 ft | 137 kts | 40° |
| 2026-05-06 01:04 | 53.41502 | -113.46376 | 7761 ft | 138 kts | 40° |
| 2026-05-06 01:04 | 53.41927 | -113.44952 | 7997 ft | 146 kts | 88° |
| 2026-05-06 01:04 | 53.41476 | -113.43453 | 8311 ft | 153 kts | 142° |
| 2026-05-06 01:05 | 53.40457 | -113.42939 | 8527 ft | 156 kts | 174° |
| 2026-05-06 01:05 | 53.39368 | -113.42720 | 8746 ft | 158 kts | 174° |
| 2026-05-06 01:05 | 53.38273 | -113.42493 | 8971 ft | 159 kts | 174° |
| 2026-05-06 01:05 | 53.37165 | -113.42262 | 9196 ft | 161 kts | 174° |
| 2026-05-06 01:06 | 53.36050 | -113.42027 | 9413 ft | 162 kts | 174° |
| 2026-05-06 01:06 | 53.34927 | -113.41788 | 9649 ft | 163 kts | 173° |
| 2026-05-06 01:06 | 53.33795 | -113.41545 | 9869 ft | 165 kts | 174° |
| 2026-05-06 01:06 | 53.32653 | -113.41296 | 10080 ft | 166 kts | 174° |
| 2026-05-06 01:07 | 53.31500 | -113.41043 | 10260 ft | 168 kts | 174° |
| 2026-05-06 01:07 | 53.30339 | -113.40788 | 10417 ft | 169 kts | 173° |
| 2026-05-06 01:07 | 53.29166 | -113.40590 | 10569 ft | 169 kts | 187° |
| 2026-05-06 01:07 | 53.28093 | -113.41294 | 10718 ft | 167 kts | 214° |
| 2026-05-06 01:08 | 53.27071 | -113.42220 | 10887 ft | 168 kts | 213° |
| 2026-05-06 01:08 | 53.26018 | -113.43087 | 11047 ft | 170 kts | 210° |
| 2026-05-06 01:08 | 53.24933 | -113.43881 | 11120 ft | 171 kts | 208° |
| 2026-05-06 01:08 | 53.23833 | -113.44666 | 11270 ft | 172 kts | 208° |
| 2026-05-06 01:09 | 53.22726 | -113.45457 | 11417 ft | 174 kts | 208° |
| 2026-05-06 01:09 | 53.21613 | -113.46254 | 11562 ft | 175 kts | 208° |
| 2026-05-06 01:09 | 53.20492 | -113.47055 | 11708 ft | 176 kts | 208° |
| 2026-05-06 01:09 | 53.19364 | -113.47861 | 11851 ft | 177 kts | 209° |
| 2026-05-06 01:10 | 53.18231 | -113.48670 | 11994 ft | 178 kts | 209° |
| 2026-05-06 01:10 | 53.17071 | -113.49505 | 12023 ft | 185 kts | 208° |
| 2026-05-06 01:10 | 53.15873 | -113.50359 | 12031 ft | 189 kts | 208° |
| 2026-05-06 01:10 | 53.14650 | -113.51229 | 12033 ft | 193 kts | 207° |
| 2026-05-06 01:11 | 53.13424 | -113.52102 | 12030 ft | 195 kts | 207° |
| 2026-05-06 01:11 | 53.12167 | -113.52994 | 12035 ft | 197 kts | 207° |
| 2026-05-06 01:11 | 53.10904 | -113.53893 | 12039 ft | 198 kts | 207° |
| 2026-05-06 01:11 | 53.09634 | -113.54794 | 12025 ft | 199 kts | 207° |
| 2026-05-06 01:12 | 53.08364 | -113.55704 | 12032 ft | 200 kts | 208° |
| 2026-05-06 01:12 | 53.07078 | -113.56601 | 12036 ft | 201 kts | 208° |
| 2026-05-06 01:12 | 53.05791 | -113.57510 | 12039 ft | 201 kts | 208° |
| 2026-05-06 01:12 | 53.04501 | -113.58428 | 12046 ft | 202 kts | 208° |
| 2026-05-06 01:13 | 53.03210 | -113.59344 | 12050 ft | 202 kts | 208° |
| 2026-05-06 01:13 | 53.01917 | -113.60260 | 12047 ft | 202 kts | 208° |
| 2026-05-06 01:13 | 53.00624 | -113.61175 | 12050 ft | 202 kts | 208° |
| 2026-05-06 01:13 | 52.99331 | -113.62090 | 12059 ft | 202 kts | 208° |
| 2026-05-06 01:14 | 52.96743 | -113.63920 | 12072 ft | 202 kts | 208° |
| 2026-05-06 01:14 | 52.95448 | -113.64834 | 12078 ft | 202 kts | 208° |
| 2026-05-06 01:14 | 52.94153 | -113.65747 | 12077 ft | 202 kts | 208° |
| 2026-05-06 01:15 | 52.92857 | -113.66662 | 12080 ft | 202 kts | 208° |
| 2026-05-06 01:15 | 52.91564 | -113.67573 | 12079 ft | 202 kts | 208° |
| 2026-05-06 01:15 | 52.90269 | -113.68484 | 12079 ft | 202 kts | 208° |
| 2026-05-06 01:15 | 52.88975 | -113.69396 | 12063 ft | 202 kts | 208° |
| 2026-05-06 01:16 | 52.87680 | -113.70306 | 12063 ft | 202 kts | 208° |
| 2026-05-06 01:16 | 52.86387 | -113.71214 | 12087 ft | 202 kts | 208° |
| 2026-05-06 01:16 | 52.85097 | -113.72122 | 12088 ft | 201 kts | 208° |
| 2026-05-06 01:16 | 52.83808 | -113.73028 | 12083 ft | 201 kts | 208° |
| 2026-05-06 01:17 | 52.82522 | -113.73930 | 12081 ft | 201 kts | 208° |
| 2026-05-06 01:17 | 52.81235 | -113.74831 | 12083 ft | 201 kts | 208° |
| 2026-05-06 01:17 | 52.79952 | -113.75729 | 12083 ft | 200 kts | 208° |
| 2026-05-06 01:17 | 52.78667 | -113.76629 | 12080 ft | 201 kts | 208° |
| 2026-05-06 01:18 | 52.77382 | -113.77528 | 12080 ft | 201 kts | 208° |
| 2026-05-06 01:18 | 52.76096 | -113.78427 | 12083 ft | 201 kts | 208° |
| 2026-05-06 01:18 | 52.74812 | -113.79325 | 12060 ft | 200 kts | 209° |
| 2026-05-06 01:18 | 52.73522 | -113.80225 | 12070 ft | 202 kts | 209° |
| 2026-05-06 01:19 | 52.72228 | -113.81130 | 12067 ft | 203 kts | 209° |
| 2026-05-06 01:19 | 52.70929 | -113.82035 | 12072 ft | 203 kts | 209° |
| 2026-05-06 01:19 | 52.69629 | -113.82941 | 12072 ft | 203 kts | 209° |
| 2026-05-06 01:19 | 52.68326 | -113.83848 | 12069 ft | 203 kts | 209° |
| 2026-05-06 01:20 | 52.67025 | -113.84754 | 12070 ft | 203 kts | 209° |
| 2026-05-06 01:20 | 52.65724 | -113.85659 | 12064 ft | 203 kts | 209° |
| 2026-05-06 01:20 | 52.64421 | -113.86566 | 12068 ft | 203 kts | 209° |
| 2026-05-06 01:20 | 52.63117 | -113.87471 | 12065 ft | 203 kts | 209° |
| 2026-05-06 01:21 | 52.61814 | -113.88375 | 12052 ft | 203 kts | 209° |
| 2026-05-06 01:21 | 52.60508 | -113.89281 | 12060 ft | 204 kts | 209° |
| 2026-05-06 01:21 | 52.59220 | -113.90176 | 12065 ft | 204 kts | 209° |
| 2026-05-06 01:21 | 52.57915 | -113.91079 | 12059 ft | 204 kts | 209° |
| 2026-05-06 01:22 | 52.56610 | -113.91982 | 12067 ft | 203 kts | 209° |
| 2026-05-06 01:22 | 52.55309 | -113.92883 | 12070 ft | 203 kts | 209° |
| 2026-05-06 01:22 | 52.54006 | -113.93783 | 12064 ft | 203 kts | 209° |
| 2026-05-06 01:22 | 52.52706 | -113.94682 | 12068 ft | 203 kts | 209° |
| 2026-05-06 01:23 | 52.51404 | -113.95580 | 12066 ft | 203 kts | 209° |
| 2026-05-06 01:23 | 52.50104 | -113.96478 | 12064 ft | 203 kts | 209° |
| 2026-05-06 01:23 | 52.48804 | -113.97374 | 12063 ft | 203 kts | 209° |
| 2026-05-06 01:23 | 52.47504 | -113.98271 | 12046 ft | 203 kts | 209° |
| 2026-05-06 01:24 | 52.46203 | -113.99166 | 12045 ft | 203 kts | 209° |
| 2026-05-06 01:24 | 52.44901 | -114.00063 | 12038 ft | 203 kts | 209° |
| 2026-05-06 01:24 | 52.44039 | -114.00656 | 12035 ft | 203 kts | 209° |
| 2026-05-06 01:24 | 52.42729 | -114.01559 | 12002 ft | 204 kts | 209° |
| 2026-05-06 01:25 | 52.41422 | -114.02458 | 11978 ft | 204 kts | 210° |
| 2026-05-06 01:25 | 52.40120 | -114.03371 | 11983 ft | 204 kts | 211° |
| 2026-05-06 01:25 | 52.38816 | -114.04283 | 11980 ft | 204 kts | 210° |
| 2026-05-06 01:25 | 52.37504 | -114.05184 | 11978 ft | 205 kts | 210° |
| 2026-05-06 01:26 | 52.36190 | -114.06083 | 11981 ft | 205 kts | 210° |
| 2026-05-06 01:26 | 52.34877 | -114.06983 | 11969 ft | 205 kts | 210° |
| 2026-05-06 01:26 | 52.33562 | -114.07883 | 11967 ft | 205 kts | 210° |
| 2026-05-06 01:26 | 52.32249 | -114.08780 | 11965 ft | 204 kts | 210° |
| 2026-05-06 01:27 | 52.30938 | -114.09675 | 11965 ft | 204 kts | 210° |
| 2026-05-06 01:27 | 52.29624 | -114.10573 | 11964 ft | 205 kts | 210° |
| 2026-05-06 01:27 | 52.28308 | -114.11471 | 11962 ft | 205 kts | 210° |
| 2026-05-06 01:27 | 52.26993 | -114.12367 | 11960 ft | 205 kts | 210° |
| 2026-05-06 01:28 | 52.25680 | -114.13261 | 11960 ft | 205 kts | 210° |
| 2026-05-06 01:28 | 52.24368 | -114.14155 | 11970 ft | 204 kts | 210° |
| 2026-05-06 01:28 | 52.23057 | -114.15049 | 11972 ft | 204 kts | 210° |
| 2026-05-06 01:28 | 52.21745 | -114.15941 | 11972 ft | 205 kts | 210° |
| 2026-05-06 01:29 | 52.20431 | -114.16834 | 11966 ft | 205 kts | 210° |
| 2026-05-06 01:29 | 52.19117 | -114.17727 | 11967 ft | 204 kts | 210° |
| 2026-05-06 01:29 | 52.17805 | -114.18617 | 11969 ft | 204 kts | 210° |
| 2026-05-06 01:29 | 52.16493 | -114.19508 | 11971 ft | 205 kts | 210° |
| 2026-05-06 01:30 | 52.15177 | -114.20400 | 11970 ft | 205 kts | 210° |
| 2026-05-06 01:30 | 52.13862 | -114.21291 | 11972 ft | 205 kts | 210° |
| 2026-05-06 01:30 | 52.12544 | -114.22184 | 11975 ft | 205 kts | 210° |
| 2026-05-06 01:30 | 52.11245 | -114.23062 | 11981 ft | 205 kts | 210° |
| 2026-05-06 01:31 | 52.09930 | -114.23951 | 11985 ft | 205 kts | 210° |
| 2026-05-06 01:31 | 52.08613 | -114.24841 | 11988 ft | 205 kts | 209° |
| 2026-05-06 01:31 | 52.07299 | -114.25729 | 11977 ft | 203 kts | 210° |
| 2026-05-06 01:31 | 52.05995 | -114.26609 | 11980 ft | 203 kts | 210° |
| 2026-05-06 01:32 | 52.04692 | -114.27487 | 11977 ft | 203 kts | 210° |
| 2026-05-06 01:32 | 52.03391 | -114.28364 | 11986 ft | 202 kts | 210° |
| 2026-05-06 01:32 | 52.02091 | -114.29239 | 12002 ft | 202 kts | 210° |
| 2026-05-06 01:32 | 52.00793 | -114.30113 | 11995 ft | 202 kts | 210° |
| 2026-05-06 01:33 | 51.99494 | -114.30987 | 12005 ft | 202 kts | 210° |
| 2026-05-06 01:33 | 51.98196 | -114.31860 | 12003 ft | 202 kts | 210° |
| 2026-05-06 01:33 | 51.96896 | -114.32733 | 12007 ft | 202 kts | 210° |
| 2026-05-06 01:33 | 51.95595 | -114.33607 | 12009 ft | 202 kts | 210° |
| 2026-05-06 01:34 | 51.94294 | -114.34480 | 11986 ft | 202 kts | 210° |
| 2026-05-06 01:34 | 51.92991 | -114.35353 | 11997 ft | 203 kts | 210° |
| 2026-05-06 01:34 | 51.91687 | -114.36227 | 11996 ft | 203 kts | 210° |
| 2026-05-06 01:34 | 51.90383 | -114.37101 | 11998 ft | 203 kts | 210° |
| 2026-05-06 01:35 | 51.89077 | -114.37975 | 11999 ft | 203 kts | 210° |
| 2026-05-06 01:35 | 51.87768 | -114.38851 | 12007 ft | 204 kts | 210° |
| 2026-05-06 01:35 | 51.86461 | -114.39725 | 12004 ft | 203 kts | 210° |
| 2026-05-06 01:35 | 51.85156 | -114.40596 | 12009 ft | 203 kts | 210° |
| 2026-05-06 01:36 | 51.83852 | -114.41467 | 12006 ft | 203 kts | 210° |
| 2026-05-06 01:36 | 51.82548 | -114.42337 | 12007 ft | 203 kts | 210° |
| 2026-05-06 01:36 | 51.81244 | -114.43206 | 11982 ft | 202 kts | 210° |
| 2026-05-06 01:36 | 51.79945 | -114.44071 | 11990 ft | 202 kts | 210° |
| 2026-05-06 01:37 | 51.78643 | -114.44938 | 11986 ft | 203 kts | 210° |
| 2026-05-06 01:37 | 51.77338 | -114.45810 | 11985 ft | 203 kts | 210° |
| 2026-05-06 01:37 | 51.76031 | -114.46679 | 11988 ft | 203 kts | 210° |
| 2026-05-06 01:37 | 51.74726 | -114.47547 | 11998 ft | 203 kts | 210° |
| 2026-05-06 01:38 | 51.73417 | -114.48416 | 11994 ft | 203 kts | 210° |
| 2026-05-06 01:38 | 51.72109 | -114.49285 | 11998 ft | 204 kts | 210° |
| 2026-05-06 01:38 | 51.70795 | -114.50158 | 11996 ft | 204 kts | 210° |
| 2026-05-06 01:38 | 51.69481 | -114.51030 | 11999 ft | 204 kts | 210° |
| 2026-05-06 01:39 | 51.68167 | -114.51903 | 11998 ft | 204 kts | 210° |
| 2026-05-06 01:39 | 51.66854 | -114.52774 | 11987 ft | 204 kts | 210° |
| 2026-05-06 01:39 | 51.65543 | -114.53634 | 11991 ft | 203 kts | 210° |
| 2026-05-06 01:39 | 51.64234 | -114.54499 | 11984 ft | 203 kts | 210° |
| 2026-05-06 01:40 | 51.62926 | -114.55363 | 12004 ft | 203 kts | 210° |
| 2026-05-06 01:40 | 51.61617 | -114.56228 | 12005 ft | 204 kts | 210° |
| 2026-05-06 01:40 | 51.60307 | -114.57093 | 12012 ft | 203 kts | 210° |
| 2026-05-06 01:40 | 51.58998 | -114.57956 | 12012 ft | 203 kts | 209° |
| 2026-05-06 01:41 | 51.57593 | -114.58424 | 12006 ft | 211 kts | 185° |
| 2026-05-06 01:41 | 51.54791 | -114.57518 | 12006 ft | 213 kts | 167° |
| 2026-05-06 01:41 | 51.53352 | -114.56937 | 12012 ft | 213 kts | 167° |
| 2026-05-06 01:42 | 51.51907 | -114.56352 | 12019 ft | 215 kts | 167° |
| 2026-05-06 01:42 | 51.50459 | -114.55770 | 12019 ft | 214 kts | 167° |
| 2026-05-06 01:42 | 51.49014 | -114.55184 | 12018 ft | 214 kts | 167° |
| 2026-05-06 01:42 | 51.47567 | -114.54597 | 12019 ft | 214 kts | 167° |
| 2026-05-06 01:43 | 51.46121 | -114.54015 | 12013 ft | 214 kts | 167° |
| 2026-05-06 01:43 | 51.44637 | -114.53605 | 11802 ft | 219 kts | 183° |
| 2026-05-06 01:43 | 51.43123 | -114.53629 | 11556 ft | 217 kts | 184° |
| 2026-05-06 01:43 | 51.41621 | -114.53621 | 11304 ft | 215 kts | 184° |
| 2026-05-06 01:44 | 51.40133 | -114.53605 | 11054 ft | 213 kts | 184° |
| 2026-05-06 01:44 | 51.38667 | -114.53597 | 10806 ft | 209 kts | 184° |
| 2026-05-06 01:44 | 51.37229 | -114.53590 | 10556 ft | 204 kts | 184° |
| 2026-05-06 01:44 | 51.35828 | -114.53580 | 10307 ft | 199 kts | 184° |
| 2026-05-06 01:45 | 51.34455 | -114.53568 | 10057 ft | 196 kts | 184° |
| 2026-05-06 01:45 | 51.33103 | -114.53556 | 9796 ft | 193 kts | 184° |
| 2026-05-06 01:45 | 51.31771 | -114.53551 | 9483 ft | 189 kts | 183° |
| 2026-05-06 01:45 | 51.30464 | -114.53559 | 9212 ft | 187 kts | 183° |
| 2026-05-06 01:46 | 51.29170 | -114.53582 | 8942 ft | 185 kts | 183° |
| 2026-05-06 01:46 | 51.27895 | -114.53621 | 8670 ft | 182 kts | 183° |
| 2026-05-06 01:46 | 51.26639 | -114.53670 | 8416 ft | 179 kts | 183° |
| 2026-05-06 01:46 | 51.25403 | -114.53730 | 8150 ft | 176 kts | 184° |
| 2026-05-06 01:47 | 51.24190 | -114.53792 | 7886 ft | 173 kts | 184° |
| 2026-05-06 01:47 | 51.22992 | -114.53854 | 7629 ft | 171 kts | 183° |
| 2026-05-06 01:47 | 51.21809 | -114.53937 | 7378 ft | 169 kts | 183° |
| 2026-05-06 01:47 | 51.20642 | -114.54048 | 7127 ft | 167 kts | 183° |
| 2026-05-06 01:48 | 51.19489 | -114.54187 | 6876 ft | 165 kts | 183° |
| 2026-05-06 01:48 | 51.18348 | -114.54355 | 6625 ft | 164 kts | 182° |
| 2026-05-06 01:48 | 51.17218 | -114.54544 | 6373 ft | 163 kts | 183° |
| 2026-05-06 01:48 | 51.16098 | -114.54737 | 6112 ft | 161 kts | 184° |
| 2026-05-06 01:49 | 51.14989 | -114.54925 | 5957 ft | 156 kts | 185° |
| 2026-05-06 01:49 | 51.13926 | -114.55112 | 5958 ft | 156 kts | 183° |
| 2026-05-06 01:49 | 51.12839 | -114.55312 | 5961 ft | 158 kts | 183° |
| 2026-05-06 01:49 | 51.11740 | -114.55513 | 5958 ft | 160 kts | 185° |
| 2026-05-06 01:50 | 51.10620 | -114.55702 | 5954 ft | 163 kts | 184° |
| 2026-05-06 01:50 | 51.09484 | -114.55891 | 5959 ft | 165 kts | 185° |
| 2026-05-06 01:50 | 51.08338 | -114.56089 | 5962 ft | 165 kts | 183° |
| 2026-05-06 01:50 | 51.07192 | -114.56302 | 5961 ft | 166 kts | 184° |
| 2026-05-06 01:51 | 51.06043 | -114.56504 | 5964 ft | 166 kts | 184° |
| 2026-05-06 01:51 | 51.04894 | -114.56688 | 5962 ft | 166 kts | 184° |
| 2026-05-06 01:51 | 51.03749 | -114.56885 | 5990 ft | 164 kts | 183° |
| 2026-05-06 01:51 | 51.02610 | -114.57094 | 6000 ft | 165 kts | 185° |
| 2026-05-06 01:52 | 51.01508 | -114.56857 | 6002 ft | 160 kts | 147° |
| 2026-05-06 01:52 | 51.00886 | -114.55500 | 6007 ft | 157 kts | 101° |
| 2026-05-06 01:52 | 51.00868 | -114.53790 | 6006 ft | 153 kts | 88° |
| 2026-05-06 01:52 | 51.00918 | -114.52120 | 6006 ft | 150 kts | 88° |
| 2026-05-06 01:53 | 51.00963 | -114.50479 | 6008 ft | 148 kts | 88° |
| 2026-05-06 01:53 | 51.01010 | -114.48880 | 5990 ft | 142 kts | 87° |
| 2026-05-06 01:53 | 51.01062 | -114.47316 | 5891 ft | 144 kts | 88° |
| 2026-05-06 01:53 | 51.01114 | -114.45716 | 5756 ft | 146 kts | 87° |
| 2026-05-06 01:54 | 51.01167 | -114.44103 | 5628 ft | 146 kts | 87° |
| 2026-05-06 01:54 | 51.01222 | -114.42508 | 5495 ft | 143 kts | 87° |
| 2026-05-06 01:54 | 51.01442 | -114.41050 | 5380 ft | 135 kts | 54° |
| 2026-05-06 01:54 | 51.02220 | -114.40274 | 5259 ft | 133 kts | 23° |
| 2026-05-06 01:55 | 51.03089 | -114.39707 | 5141 ft | 138 kts | 25° |
| 2026-05-06 01:55 | 51.03977 | -114.39123 | 5011 ft | 138 kts | 25° |
| 2026-05-06 01:55 | 51.04841 | -114.38559 | 4990 ft | 132 kts | 25° |
| 2026-05-06 01:55 | 51.05716 | -114.38048 | 4841 ft | 137 kts | 12° |
| 2026-05-06 01:56 | 51.06637 | -114.37953 | 4629 ft | 127 kts | 5° |
| 2026-05-06 01:56 | 51.07490 | -114.37909 | 4438 ft | 119 kts | 2° |
| 2026-05-06 01:56 | 51.08287 | -114.37890 | 4291 ft | 112 kts | 2° |
| 2026-05-06 01:56 | 51.09067 | -114.37872 | 4139 ft | 112 kts | 2° |
| 2026-05-06 01:57 | 51.09833 | -114.37870 | 3964 ft | 101 kts | 1° |
| 2026-05-06 01:57 | 51.10431 | -114.37873 | 3944 ft | 68 kts | 359° |
| 2026-05-06 01:57 | 51.10791 | -114.37880 | 3943 ft | 46 kts | 1° |
| 2026-05-06 01:57 | 51.10939 | -114.37792 | 3944 ft | 22 kts | 89° |
| 2026-05-06 01:58 | 51.10932 | -114.37618 | 3944 ft | 16 kts | 134° |
| 2026-05-06 01:58 | 51.10783 | -114.37591 | 3943 ft | 26 kts | 182° |
| 2026-05-06 01:58 | 51.10582 | -114.37594 | 3943 ft | 31 kts | 180° |
| 2026-05-06 01:58 | 51.10365 | -114.37594 | 3943 ft | 24 kts | 179° |
| 2026-05-06 01:59 | 51.10299 | -114.37541 | 3943 ft | 0 kts | 144° |